Time;durP1;ratioP1;P1;durP2;ratioP2;P2;SDS_P1;SDS_P2;PMS_P1;PMS_P2;Temp;Humidity;BMP_temperature;BMP_pressure;BME280_temperature;BME280_humidity;BME280_pressure;Samples;Min_cycle;Max_cycle;Signal;HPM_P1;HPM_P2
2021/07/21 00:00:51;;;;;;;26.52;18.05;;;;;;;21.96;75.29;100198.34;1874186;76;21072;-68
2021/07/21 00:03:21;;;;;;;27.65;16.95;;;;;;;21.92;75.52;100196.95;1874298;76;21138;-69
2021/07/21 00:05:50;;;;;;;25.02;16.17;;;;;;;21.90;75.55;100197.60;1874247;76;21478;-68
2021/07/21 00:08:19;;;;;;;22.58;15.15;;;;;;;21.91;75.22;100208.69;1874293;76;21502;-67
2021/07/21 00:10:50;;;;;;;25.08;17.10;;;;;;;21.91;75.28;100195.28;1874255;76;21555;-67
2021/07/21 00:13:30;;;;;;;24.35;16.65;;;;;;;21.90;75.28;100192.75;1874310;76;21015;-68
2021/07/21 00:18:46;;;;;;;27.82;18.00;;;;;;;21.87;75.42;100192.52;1874378;76;21536;-67
2021/07/21 00:21:08;;;;;;;22.35;16.55;;;;;;;21.83;75.72;100196.49;1873756;76;21048;-67
2021/07/21 00:23:39;;;;;;;23.47;16.55;;;;;;;21.78;75.86;100193.41;1874302;76;21012;-68
2021/07/21 00:26:08;;;;;;;21.65;16.80;;;;;;;21.77;75.88;100187.70;1874273;76;21044;-68
2021/07/21 00:28:41;;;;;;;24.63;17.12;;;;;;;21.74;76.00;100187.99;1874062;76;21510;-68
2021/07/21 00:31:15;;;;;;;25.97;15.70;;;;;;;21.71;75.87;100185.63;1874472;76;21094;-68
2021/07/21 00:33:42;;;;;;;22.50;15.85;;;;;;;21.72;75.61;100189.97;1881081;76;21079;-68
2021/07/21 00:36:11;;;;;;;25.00;16.00;;;;;;;21.71;75.38;100184.28;1895563;76;21070;-67
2021/07/21 00:38:40;;;;;;;24.18;16.30;;;;;;;21.71;75.21;100193.66;1895500;76;21108;-67
2021/07/21 00:41:09;;;;;;;24.63;15.38;;;;;;;21.68;75.26;100187.24;1895395;75;21940;-67
2021/07/21 00:43:38;;;;;;;24.07;16.32;;;;;;;21.68;75.18;100188.58;1895507;76;21104;-67
2021/07/21 00:46:06;;;;;;;23.32;16.62;;;;;;;21.67;75.25;100184.20;1895511;76;21059;-67
2021/07/21 00:48:35;;;;;;;23.27;17.30;;;;;;;21.66;75.20;100183.36;1895497;76;21047;-67
2021/07/21 00:51:05;;;;;;;23.30;16.48;;;;;;;21.68;75.07;100186.74;1895548;74;21144;-67
2021/07/21 00:53:35;;;;;;;24.00;18.15;;;;;;;21.68;75.04;100187.24;1895471;75;21112;-68
2021/07/21 00:56:05;;;;;;;32.93;23.05;;;;;;;21.66;75.00;100182.53;1895556;76;21586;-68
2021/07/21 00:58:33;;;;;;;33.78;22.55;;;;;;;21.66;74.86;100183.87;1895659;76;21039;-65
2021/07/21 01:01:03;;;;;;;32.55;24.90;;;;;;;21.66;74.77;100185.20;1895607;75;21128;-65
2021/07/21 01:03:33;;;;;;;33.73;23.57;;;;;;;21.62;74.89;100184.66;1895616;75;21075;-66
2021/07/21 01:06:04;;;;;;;29.12;16.48;;;;;;;21.59;75.01;100183.09;1895716;75;21094;-66
2021/07/21 01:08:33;;;;;;;19.07;16.00;;;;;;;21.58;75.00;100180.58;1895566;75;21066;-66
2021/07/21 01:11:15;;;;;;;26.17;17.05;;;;;;;21.55;75.01;100176.84;1893989;75;21062;-66
2021/07/21 01:13:56;;;;;;;21.95;17.52;;;;;;;21.52;75.00;100179.30;1895603;75;21029;-65
2021/07/21 01:16:28;;;;;;;23.18;18.48;;;;;;;21.47;75.20;100178.04;1895404;76;21058;-65
2021/07/21 01:19:18;;;;;;;25.12;17.12;;;;;;;21.46;75.03;100181.22;1895630;76;21078;-66
2021/07/21 01:21:51;;;;;;;24.05;18.75;;;;;;;21.46;74.77;100177.20;1895390;75;21137;-65
2021/07/21 01:24:31;;;;;;;27.93;20.55;;;;;;;21.47;74.73;100183.39;1870290;75;21124;-65
2021/07/21 01:27:20;;;;;;;26.05;18.15;;;;;;;21.44;74.98;100181.00;1895445;76;21156;-65
2021/07/21 01:29:52;;;;;;;21.77;15.75;;;;;;;21.37;75.20;100178.03;1895531;75;21035;-65
2021/07/21 01:32:23;;;;;;;19.15;14.95;;;;;;;21.33;75.11;100168.10;1895494;75;21485;-65
2021/07/21 01:34:56;;;;;;;23.18;15.85;;;;;;;21.30;74.97;100168.41;1884348;76;21083;-65
2021/07/21 01:37:25;;;;;;;23.05;16.48;;;;;;;21.26;75.28;100171.50;1874134;76;21060;-68
2021/07/21 01:39:57;;;;;;;24.12;17.30;;;;;;;21.26;75.25;100171.50;1874231;76;21548;-68
2021/07/21 01:42:27;;;;;;;25.52;18.92;;;;;;;21.26;75.25;100165.64;1874199;76;21458;-68
2021/07/21 01:44:58;;;;;;;24.82;16.80;;;;;;;21.26;75.11;100158.95;1874343;76;21532;-66
2021/07/21 01:47:33;;;;;;;22.55;16.37;;;;;;;21.26;75.07;100161.63;1874281;76;21062;-66
2021/07/21 01:50:00;;;;;;;25.08;17.75;;;;;;;21.27;75.08;100157.14;1873989;76;21110;-66
2021/07/21 01:52:31;;;;;;;28.23;16.50;;;;;;;21.25;75.25;100163.97;1874302;76;21071;-66
2021/07/21 01:55:04;;;;;;;27.73;17.70;;;;;;;21.25;75.21;100160.42;1874581;76;21119;-66
2021/07/21 01:57:35;;;;;;;25.00;18.65;;;;;;;21.25;75.01;100157.75;1862260;76;21129;-66
2021/07/21 02:00:16;;;;;;;22.50;17.30;;;;;;;21.21;75.00;100168.77;1872135;76;21079;-66
2021/07/21 02:02:55;;;;;;;35.33;18.42;;;;;;;21.18;74.93;100170.38;1874203;76;21048;-66
2021/07/21 02:05:27;;;;;;;57.10;21.10;;;;;;;21.16;74.90;100164.83;1873160;76;21062;-65
2021/07/21 02:07:57;;;;;;;26.70;19.02;;;;;;;21.12;75.14;100164.27;1874350;76;21109;-66
2021/07/21 02:10:28;;;;;;;26.23;18.45;;;;;;;21.10;75.12;100162.70;1874226;76;21134;-66
2021/07/21 02:13:01;;;;;;;25.83;17.43;;;;;;;21.05;75.18;100157.78;1874192;76;21577;-65
2021/07/21 02:15:32;;;;;;;29.65;17.17;;;;;;;21.05;74.97;100160.46;1874365;76;21687;-66
2021/07/21 02:18:03;;;;;;;25.48;17.73;;;;;;;21.05;74.95;100155.11;1874093;76;21093;-65
2021/07/21 02:20:34;;;;;;;27.52;17.82;;;;;;;21.03;75.03;100150.39;1874259;76;21076;-66
2021/07/21 02:23:05;;;;;;;22.70;16.12;;;;;;;21.02;75.20;100144.67;1873927;76;21164;-66
2021/07/21 02:25:48;;;;;;;;;;;;;;;21.02;75.11;100150.03;1877147;76;21055;-66
2021/07/21 02:28:19;;;;;;;20.77;15.63;;;;;;;20.96;75.32;100146.09;1874452;76;20107;-65
2021/07/21 02:30:52;;;;;;;24.85;17.07;;;;;;;20.93;75.48;100156.23;1874196;76;21506;-66
2021/07/21 02:33:23;;;;;;;20.75;15.72;;;;;;;20.93;75.83;100154.39;1874302;76;21035;-65
2021/07/21 02:35:52;;;;;;;23.52;15.18;;;;;;;20.98;76.04;100143.28;1888009;76;21153;-66
2021/07/21 02:38:21;;;;;;;23.22;15.03;;;;;;;21.05;75.99;100150.26;1895539;76;21442;-66
2021/07/21 02:40:51;;;;;;;20.10;15.85;;;;;;;21.16;75.73;100148.27;1893585;74;21087;-66
2021/07/21 02:43:24;;;;;;;;;;;;;;;21.30;75.28;100150.14;1897899;75;21106;-66
2021/07/21 02:45:53;;;;;;;23.80;16.45;;;;;;;21.35;74.79;100146.55;1895477;76;20145;-66
2021/07/21 02:48:23;;;;;;;22.25;15.53;;;;;;;21.35;74.64;100141.19;1895337;75;21105;-66
2021/07/21 02:50:55;;;;;;;24.60;16.75;;;;;;;21.33;74.66;100144.51;1895422;75;21082;-66
2021/07/21 02:53:27;;;;;;;21.70;13.95;;;;;;;21.39;74.66;100144.78;1894068;75;21063;-66
2021/07/21 02:56:15;;;;;;;23.55;16.45;;;;;;;21.52;74.48;100151.17;1892845;75;21177;-68
2021/07/21 02:58:48;;;;;;;22.17;15.80;;;;;;;21.66;73.70;100148.53;1895143;75;21117;-68
2021/07/21 03:01:22;;;;;;;20.23;14.35;;;;;;;21.76;73.24;100151.17;1895302;75;21055;-68
2021/07/21 03:03:53;;;;;;;20.80;15.75;;;;;;;21.92;72.88;100146.54;1895515;75;21082;-68
2021/07/21 03:06:26;;;;;;;22.20;14.78;;;;;;;22.07;72.25;100148.23;1895692;75;21042;-67
2021/07/21 03:09:00;;;;;;;22.07;14.93;;;;;;;22.28;71.92;100156.91;1893776;75;21091;-68
2021/07/21 03:11:31;;;;;;;19.87;13.68;;;;;;;22.51;70.81;100149.77;1894803;75;21111;-65
2021/07/21 03:14:02;;;;;;;19.67;13.25;;;;;;;22.73;70.18;100150.66;1895689;76;21034;-66
2021/07/21 03:16:36;;;;;;;19.23;13.03;;;;;;;22.80;70.05;100148.22;1894297;75;21539;-66
2021/07/21 03:19:08;;;;;;;16.60;12.65;;;;;;;22.89;70.03;100145.12;1895978;75;21046;-66
2021/07/21 03:21:40;;;;;;;22.67;13.83;;;;;;;22.98;70.02;100145.53;1894907;75;21153;-66
2021/07/21 03:24:14;;;;;;;21.62;12.95;;;;;;;23.06;69.72;100159.05;1895443;75;21087;-66
2021/07/21 03:26:55;;;;;;;20.82;13.40;;;;;;;23.11;69.20;100156.74;1894021;75;21245;-66
2021/07/21 03:29:27;;;;;;;19.27;13.13;;;;;;;23.12;69.02;100153.04;1895047;75;21541;-66
2021/07/21 03:31:58;;;;;;;16.12;12.07;;;;;;;23.14;68.88;100156.92;1895470;75;21070;-66
2021/07/21 03:34:29;;;;;;;16.70;13.65;;;;;;;23.16;68.96;100150.89;1895678;76;21485;-64
2021/07/21 03:37:00;;;;;;;16.42;13.10;;;;;;;23.27;68.79;100141.74;1895008;75;21553;-64
2021/07/21 03:39:35;;;;;;;18.12;12.33;;;;;;;23.33;68.33;100149.16;1892433;75;21099;-64
2021/07/21 03:42:07;;;;;;;18.07;12.63;;;;;;;23.40;68.20;100144.84;1887664;76;21070;-64
2021/07/21 03:44:37;;;;;;;17.73;12.23;;;;;;;23.55;68.14;100145.62;1895535;75;21035;-64
2021/07/21 03:47:08;;;;;;;22.93;15.68;;;;;;;23.58;67.44;100154.21;1893864;75;21172;-65
2021/07/21 03:49:38;;;;;;;22.77;14.15;;;;;;;23.53;66.90;100159.72;1895563;76;21035;-64
2021/07/21 03:52:11;;;;;;;17.45;12.30;;;;;;;23.46;66.95;100144.23;1894947;75;21156;-63
2021/07/21 03:54:42;;;;;;;17.77;13.03;;;;;;;23.57;67.05;100152.54;1895430;75;21079;-64
2021/07/21 03:57:24;;;;;;;20.62;13.72;;;;;;;23.73;67.13;100149.59;1894986;75;21197;-64
2021/07/21 03:59:53;;;;;;;22.13;12.58;;;;;;;23.91;66.93;100146.87;1896044;75;21555;-64
2021/07/21 04:02:24;;;;;;;14.38;11.97;;;;;;;24.09;66.37;100148.45;1895599;75;21457;-65
2021/07/21 04:04:55;;;;;;;17.92;12.23;;;;;;;24.27;65.03;100145.67;1895532;76;21132;-66
2021/07/21 04:07:25;;;;;;;15.83;12.80;;;;;;;24.44;64.59;100144.37;1895368;76;21066;-66
2021/07/21 04:10:09;;;;;;;15.70;11.20;;;;;;;24.62;63.92;100150.50;1893578;75;21549;-66
2021/07/21 04:12:42;;;;;;;18.20;12.70;;;;;;;24.77;63.59;100158.76;1894635;75;21141;-65
2021/07/21 04:15:14;;;;;;;16.17;11.63;;;;;;;25.02;63.59;100157.42;1895214;75;21516;-66
2021/07/21 04:17:48;;;;;;;21.97;11.70;;;;;;;25.29;63.44;100157.62;1895107;75;21082;-67
2021/07/21 04:20:19;;;;;;;17.45;11.38;;;;;;;25.59;62.79;100161.95;1894589;75;21649;-66
2021/07/21 04:22:49;;;;;;;19.98;11.38;;;;;;;25.84;62.15;100153.78;1895680;75;21501;-65
2021/07/21 04:25:22;;;;;;;18.85;12.23;;;;;;;26.04;61.39;100155.08;1895682;75;21007;-66
2021/07/21 04:27:54;;;;;;;15.70;11.40;;;;;;;26.28;60.58;100149.25;1894786;75;21166;-66
2021/07/21 04:30:26;;;;;;;18.75;11.18;;;;;;;26.45;59.94;100146.80;1895740;75;21160;-66
2021/07/21 04:32:56;;;;;;;13.95;10.43;;;;;;;26.70;59.72;100153.42;1895575;74;21046;-66
2021/07/21 04:35:30;;;;;;;15.53;10.88;;;;;;;27.00;59.24;100152.18;1895593;76;21136;-66
2021/07/21 04:38:01;;;;;;;15.72;10.25;;;;;;;27.27;58.44;100162.96;1894168;75;21177;-67
2021/07/21 04:40:42;;;;;;;14.23;10.53;;;;;;;27.42;57.47;100157.59;1893755;75;21183;-66
2021/07/21 04:43:11;;;;;;;17.67;10.90;;;;;;;27.60;57.50;100155.89;1891622;76;21177;-67
2021/07/21 04:45:44;;;;;;;15.15;11.00;;;;;;;27.88;56.61;100165.54;1895499;76;21105;-66
2021/07/21 04:48:14;;;;;;;18.52;11.45;;;;;;;28.04;55.71;100164.03;1895482;76;21055;-67
2021/07/21 04:50:46;;;;;;;18.32;12.35;;;;;;;28.26;55.65;100168.98;1893870;75;21160;-67
2021/07/21 04:53:15;;;;;;;15.50;10.43;;;;;;;28.47;54.76;100161.94;1895645;75;21035;-66
2021/07/21 04:55:47;;;;;;;16.32;10.95;;;;;;;28.69;54.39;100150.64;1895529;75;21035;-67
2021/07/21 04:58:16;;;;;;;13.50;9.98;;;;;;;28.95;53.82;100155.48;1895568;76;21109;-67
2021/07/21 05:00:50;;;;;;;14.73;11.25;;;;;;;29.14;53.09;100153.16;1895375;75;21173;-67
2021/07/21 05:03:22;;;;;;;13.70;10.30;;;;;;;29.33;52.82;100152.50;1895288;75;21099;-67
2021/07/21 05:05:52;;;;;;;13.98;9.90;;;;;;;29.63;52.62;100162.61;1895042;75;21327;-67
2021/07/21 05:08:22;;;;;;;13.55;10.55;;;;;;;29.90;52.22;100158.74;1895177;75;21094;-66
2021/07/21 05:10:53;;;;;;;15.23;10.08;;;;;;;30.21;52.02;100152.83;1889399;76;21083;-67
2021/07/21 05:13:21;;;;;;;16.48;10.38;;;;;;;30.49;51.18;100161.41;1875725;76;21450;-67
2021/07/21 05:15:51;;;;;;;16.93;11.53;;;;;;;30.63;50.62;100150.05;1895522;75;21166;-67
2021/07/21 05:18:20;;;;;;;18.48;11.00;;;;;;;30.85;50.70;100159.39;1895477;76;21497;-68
2021/07/21 05:20:53;;;;;;;16.93;10.28;;;;;;;31.15;50.22;100161.20;1895173;75;21155;-67
2021/07/21 05:23:23;;;;;;;14.83;10.53;;;;;;;31.52;50.06;100159.77;1895516;76;21059;-67
2021/07/21 05:26:01;;;;;;;17.07;11.22;;;;;;;31.90;48.60;100154.12;1894683;75;21489;-67
2021/07/21 05:28:34;;;;;;;13.05;9.80;;;;;;;32.23;48.28;100171.73;1869417;75;21504;-67
2021/07/21 05:31:04;;;;;;;17.90;10.13;;;;;;;32.47;47.39;100169.31;1894405;75;21087;-67
2021/07/21 05:33:35;;;;;;;15.68;10.23;;;;;;;32.62;47.62;100173.96;1894064;75;21453;-67
2021/07/21 05:36:04;;;;;;;17.02;10.95;;;;;;;32.60;47.54;100165.17;1895487;75;21035;-67
2021/07/21 05:38:34;;;;;;;15.13;10.20;;;;;;;32.83;46.93;100165.98;1876693;75;21064;-67
2021/07/21 05:41:06;;;;;;;22.00;9.73;;;;;;;33.09;46.41;100173.13;1874220;76;21126;-67
2021/07/21 05:43:40;;;;;;;13.83;9.00;;;;;;;33.47;45.75;100163.98;1873933;76;21138;-67
2021/07/21 05:46:09;;;;;;;14.85;10.15;;;;;;;33.46;45.28;100171.06;1874280;76;21087;-67
2021/07/21 05:48:39;;;;;;;16.25;10.00;;;;;;;33.05;45.38;100176.00;1873237;76;21137;-67
2021/07/21 05:51:22;;;;;;;11.53;9.50;;;;;;;32.78;46.17;100173.16;1872847;76;21040;-66
2021/07/21 05:53:55;;;;;;;12.58;9.58;;;;;;;32.52;46.60;100173.59;1873829;76;21144;-68
2021/07/21 05:56:25;;;;;;;13.38;9.78;;;;;;;32.37;46.90;100174.38;1874152;76;21071;-69
2021/07/21 05:58:55;;;;;;;15.72;9.58;;;;;;;32.48;46.76;100175.05;1874020;76;21121;-67
2021/07/21 06:01:24;;;;;;;17.10;10.10;;;;;;;32.24;46.32;100173.41;1874220;76;21109;-67
2021/07/21 06:03:53;;;;;;;17.37;9.45;;;;;;;31.98;46.57;100172.10;1874156;76;21075;-66
2021/07/21 06:06:29;;;;;;;16.07;9.78;;;;;;;31.97;46.57;100169.91;1874273;76;21044;-67
2021/07/21 06:09:09;;;;;;;15.00;10.40;;;;;;;32.35;46.34;100180.58;1872327;76;21071;-67
2021/07/21 06:11:55;;;;;;;20.37;9.75;;;;;;;32.95;45.31;100170.72;1874175;76;21067;-66
2021/07/21 06:14:25;;;;;;;15.60;9.65;;;;;;;33.26;44.49;100182.16;1874334;76;21438;-67
2021/07/21 06:16:56;;;;;;;17.85;9.15;;;;;;;33.36;43.46;100174.81;1873621;76;21212;-68
2021/07/21 06:19:25;;;;;;;16.87;9.35;;;;;;;33.64;43.18;100167.50;1874264;76;21143;-68
2021/07/21 06:21:55;;;;;;;14.30;9.08;;;;;;;34.07;42.79;100168.02;1874234;76;21031;-67
2021/07/21 06:24:41;;;;;;;16.60;9.03;;;;;;;34.30;41.62;100167.86;1874116;76;21051;-67
2021/07/21 06:27:11;;;;;;;18.02;9.80;;;;;;;34.85;40.26;100168.27;1873308;76;21133;-68
2021/07/21 06:29:42;;;;;;;15.70;9.28;;;;;;;35.11;39.32;100166.47;1874076;76;21144;-67
2021/07/21 06:32:11;;;;;;;27.13;10.48;;;;;;;34.74;38.73;100165.27;1874384;76;21536;-68
2021/07/21 06:34:40;;;;;;;20.05;9.43;;;;;;;33.96;39.29;100163.32;1874440;76;21063;-68
2021/07/21 06:37:14;;;;;;;19.40;9.85;;;;;;;33.49;40.94;100163.77;1874919;76;21060;-68
2021/07/21 06:39:42;;;;;;;15.03;9.68;;;;;;;33.52;41.76;100163.88;1895663;74;21034;-68
2021/07/21 06:42:11;;;;;;;14.45;9.33;;;;;;;33.96;41.33;100161.95;1895674;76;21070;-68
2021/07/21 06:44:42;;;;;;;14.23;9.25;;;;;;;34.44;39.54;100159.79;1894666;75;21065;-67
2021/07/21 06:47:13;;;;;;;15.15;9.18;;;;;;;34.68;39.26;100155.27;1894291;75;21102;-67
2021/07/21 06:49:41;;;;;;;16.75;8.85;;;;;;;35.06;39.76;100155.93;1895739;75;21059;-67
2021/07/21 06:52:10;;;;;;;18.20;9.43;;;;;;;35.45;38.72;100157.19;1895492;75;21062;-67
2021/07/21 06:54:40;;;;;;;18.85;8.85;;;;;;;35.48;37.67;100153.95;1895535;75;21787;-67
2021/07/21 06:57:26;;;;;;;18.25;10.10;;;;;;;35.22;38.49;100147.06;1895514;76;21199;-67
2021/07/21 07:00:13;;;;;;;18.73;9.20;;;;;;;34.94;38.90;100153.19;1895519;75;21087;-67
2021/07/21 07:03:00;;;;;;;16.93;9.25;;;;;;;34.52;40.07;100143.59;1895556;75;21146;-67
2021/07/21 07:05:30;;;;;;;17.45;10.48;;;;;;;34.34;40.69;100166.33;1875086;75;21069;-68
2021/07/21 07:08:17;;;;;;;24.12;10.35;;;;;;;34.30;40.95;100163.77;1895509;74;21070;-67
2021/07/21 07:11:04;;;;;;;22.00;10.35;;;;;;;34.15;41.36;100170.96;1895441;76;21047;-67
2021/07/21 07:13:33;;;;;;;18.15;9.55;;;;;;;34.02;41.86;100167.86;1895627;76;21039;-67
2021/07/21 07:16:01;;;;;;;15.40;9.20;;;;;;;34.03;42.09;100168.14;1895557;76;21433;-67
2021/07/21 07:18:31;;;;;;;16.75;10.53;;;;;;;34.38;41.93;100159.33;1895623;76;21031;-67
2021/07/21 07:21:01;;;;;;;17.02;10.38;;;;;;;34.95;41.27;100161.16;1895778;76;21496;-67
2021/07/21 07:23:30;;;;;;;15.32;9.13;;;;;;;35.46;39.55;100160.75;1894826;75;21531;-67
2021/07/21 07:25:58;;;;;;;17.80;10.18;;;;;;;35.46;39.55;100160.75;1895533;74;21112;-67
2021/07/21 07:28:27;;;;;;;14.13;9.88;;;;;;;35.48;40.02;100164.08;1895673;74;21039;-68
2021/07/21 07:30:56;;;;;;;13.70;9.45;;;;;;;35.65;40.22;100160.91;1895618;76;21015;-67
2021/07/21 07:33:25;;;;;;;18.57;9.75;;;;;;;35.68;39.84;100159.06;1895524;76;21124;-67
2021/07/21 07:35:54;;;;;;;14.43;7.83;;;;;;;35.52;40.27;100157.88;1895461;76;21132;-67
2021/07/21 07:38:22;;;;;;;16.52;10.88;;;;;;;35.24;40.94;100165.44;1890800;75;21150;-67
2021/07/21 07:40:52;;;;;;;17.05;11.97;;;;;;;34.86;42.64;100165.31;1874240;76;21060;-67
2021/07/21 07:43:21;;;;;;;20.45;11.97;;;;;;;34.78;43.89;100172.47;1874280;76;21031;-67
2021/07/21 07:45:51;;;;;;;17.35;12.58;;;;;;;34.45;44.98;100157.88;1874241;76;21105;-67
2021/07/21 07:48:20;;;;;;;20.80;10.60;;;;;;;34.45;44.98;100157.88;1874389;76;21105;-67
2021/07/21 07:50:48;;;;;;;16.45;10.32;;;;;;;34.34;44.78;100177.26;1874278;76;21023;-67
2021/07/21 07:53:17;;;;;;;17.80;11.08;;;;;;;34.31;44.65;100179.11;1874342;76;21090;-67
2021/07/21 07:55:46;;;;;;;16.45;10.35;;;;;;;34.72;44.54;100166.57;1874481;76;21121;-68
2021/07/21 07:58:15;;;;;;;21.25;11.33;;;;;;;35.37;43.61;100166.56;1874268;76;21129;-67
2021/07/21 08:00:44;;;;;;;15.95;11.63;;;;;;;35.76;42.76;100162.00;1874280;75;21035;-67
2021/07/21 08:03:13;;;;;;;19.25;10.90;;;;;;;35.67;42.46;100159.30;1874159;76;21032;-68
2021/07/21 08:05:42;;;;;;;17.70;12.70;;;;;;;35.43;42.75;100168.06;1874311;76;21060;-67
2021/07/21 08:08:11;;;;;;;15.95;12.00;;;;;;;35.24;43.81;100171.45;1874266;76;21152;-67
2021/07/21 08:10:40;;;;;;;16.62;12.30;;;;;;;34.88;45.05;100167.27;1874260;76;21520;-67
2021/07/21 08:13:09;;;;;;;15.70;12.75;;;;;;;34.53;46.07;100158.40;1874380;76;21064;-68
2021/07/21 08:15:37;;;;;;;21.40;13.25;;;;;;;34.16;47.21;100155.72;1874190;76;21152;-68
2021/07/21 08:18:06;;;;;;;17.90;13.35;;;;;;;33.80;47.67;100165.58;1874350;76;21039;-67
2021/07/21 08:20:35;;;;;;;18.20;14.05;;;;;;;33.50;48.58;100164.62;1874265;76;21086;-67
2021/07/21 08:23:04;;;;;;;20.08;14.00;;;;;;;33.34;48.90;100169.58;1874412;76;21462;-67
2021/07/21 08:25:33;;;;;;;16.62;14.93;;;;;;;33.15;49.89;100167.88;1874252;76;21059;-67
2021/07/21 08:28:03;;;;;;;22.10;15.55;;;;;;;32.94;50.64;100168.50;1874351;75;21043;-67
2021/07/21 08:30:32;;;;;;;18.95;15.25;;;;;;;32.82;51.11;100173.84;1874235;76;21573;-67
2021/07/21 08:33:00;;;;;;;20.97;15.03;;;;;;;32.72;51.41;100174.87;1874252;76;21044;-67
2021/07/21 08:35:31;;;;;;;17.70;13.83;;;;;;;32.76;51.66;100180.18;1874269;76;21063;-67
2021/07/21 08:38:02;;;;;;;21.35;15.30;;;;;;;32.74;51.76;100178.71;1874389;76;21138;-67
2021/07/21 08:40:31;;;;;;;25.32;16.27;;;;;;;32.70;52.33;100179.17;1891086;76;21070;-68
2021/07/21 08:43:00;;;;;;;19.45;15.28;;;;;;;32.79;52.44;100175.63;1895417;74;21043;-67
2021/07/21 08:45:29;;;;;;;25.20;16.52;;;;;;;32.82;52.70;100186.11;1895459;76;21525;-67
2021/07/21 08:47:58;;;;;;;19.23;16.95;;;;;;;32.96;53.03;100186.01;1895512;75;21126;-67
2021/07/21 08:50:27;;;;;;;25.00;18.17;;;;;;;33.18;53.02;100186.50;1895640;76;21461;-67
2021/07/21 08:52:57;;;;;;;21.48;17.27;;;;;;;33.57;52.64;100178.51;1895537;75;21035;-67
2021/07/21 08:55:26;;;;;;;19.32;16.37;;;;;;;33.55;52.58;100183.36;1895411;75;21042;-68
2021/07/21 08:57:56;;;;;;;21.30;15.60;;;;;;;33.75;51.98;100183.16;1895539;75;21505;-68
2021/07/21 09:00:25;;;;;;;18.30;14.05;;;;;;;34.03;51.04;100193.58;1895583;75;21474;-68
2021/07/21 09:02:54;;;;;;;19.37;13.83;;;;;;;34.07;50.15;100185.77;1895610;76;21068;-67
2021/07/21 09:05:23;;;;;;;19.90;13.70;;;;;;;33.98;49.40;100177.58;1895458;76;21498;-67
2021/07/21 09:07:51;;;;;;;17.50;12.63;;;;;;;33.74;49.82;100173.32;1895382;74;21035;-67
2021/07/21 09:10:21;;;;;;;16.23;12.30;;;;;;;33.57;50.07;100185.84;1895504;75;21011;-67
2021/07/21 09:12:51;;;;;;;15.95;11.78;;;;;;;33.51;49.57;100184.02;1895491;76;21469;-67
2021/07/21 09:15:22;;;;;;;16.27;11.40;;;;;;;33.45;49.46;100183.85;1895497;76;21035;-68
2021/07/21 09:18:08;;;;;;;24.43;13.20;;;;;;;33.45;49.33;100187.12;1895520;76;21497;-67
2021/07/21 09:20:46;;;;;;;18.37;12.35;;;;;;;33.64;49.28;100178.42;1895590;74;21035;-68
2021/07/21 09:23:16;;;;;;;17.15;10.98;;;;;;;33.83;49.10;100174.69;1893410;75;21043;-67
2021/07/21 09:25:45;;;;;;;21.10;11.20;;;;;;;33.99;48.90;100190.16;1895446;76;21128;-67
2021/07/21 09:28:14;;;;;;;16.60;10.32;;;;;;;34.32;48.23;100176.12;1895478;76;21047;-67
2021/07/21 09:30:48;;;;;;;14.55;11.63;;;;;;;34.80;47.48;100173.06;1895475;76;21469;-67
2021/07/21 09:33:18;;;;;;;14.23;11.68;;;;;;;34.90;46.86;100178.80;1895426;75;21038;-67
2021/07/21 09:35:51;;;;;;;13.75;10.85;;;;;;;34.68;47.38;100165.34;1895545;76;21011;-67
2021/07/21 09:38:22;;;;;;;16.05;10.08;;;;;;;34.52;47.99;100174.48;1895496;76;21125;-67
2021/07/21 09:40:53;;;;;;;15.63;10.80;;;;;;;34.60;47.78;100173.32;1882604;74;21063;-67
2021/07/21 09:43:25;;;;;;;18.12;10.68;;;;;;;34.44;48.24;100176.19;1874254;75;21036;-68
2021/07/21 09:45:54;;;;;;;10.65;9.35;;;;;;;34.27;48.35;100183.34;1874603;76;21043;-67
2021/07/21 09:48:44;;;;;;;11.38;10.18;;;;;;;34.06;48.74;100181.89;1874225;76;21136;-67
2021/07/21 09:51:32;;;;;;;15.53;9.63;;;;;;;33.91;48.92;100176.82;1874226;76;21039;-67
2021/07/21 09:54:18;;;;;;;16.32;10.18;;;;;;;33.75;49.14;100175.51;1874229;76;21180;-67
2021/07/21 09:56:53;;;;;;;17.12;9.85;;;;;;;33.62;49.17;100170.98;1873636;76;21043;-67
2021/07/21 09:59:29;;;;;;;13.93;9.85;;;;;;;33.53;49.04;100167.71;1873907;76;21051;-67
2021/07/21 10:01:57;;;;;;;12.23;9.53;;;;;;;33.44;49.21;100169.92;1874267;76;21060;-67
2021/07/21 10:04:40;;;;;;;13.75;9.53;;;;;;;33.41;49.56;100171.72;1874231;76;21545;-67
2021/07/21 10:07:44;;;;;;;13.40;9.58;;;;;;;33.51;48.95;100170.38;1874320;76;21079;-67
2021/07/21 10:09:54;;;;;;;12.63;8.95;;;;;;;33.59;48.62;100172.29;1872519;76;21129;-67
2021/07/21 10:12:23;;;;;;;12.98;10.58;;;;;;;33.57;48.81;100171.69;1874126;76;21040;-68
2021/07/21 10:15:00;;;;;;;11.55;9.95;;;;;;;33.59;49.00;100166.00;1874209;76;21031;-67
2021/07/21 10:17:29;;;;;;;10.03;8.23;;;;;;;33.64;48.92;100158.84;1874201;76;21063;-67
2021/07/21 10:19:58;;;;;;;17.42;7.65;;;;;;;33.56;48.64;100160.45;1874213;76;21099;-67
2021/07/21 10:22:28;;;;;;;11.43;9.23;;;;;;;33.31;48.23;100157.77;1874201;76;21431;-67
2021/07/21 10:24:57;;;;;;;12.18;8.10;;;;;;;33.10;48.60;100161.67;1907653;75;21594;-68
2021/07/21 10:27:25;;;;;;;12.15;9.18;;;;;;;32.89;48.87;100158.81;1910147;75;21027;-66
2021/07/21 10:29:57;;;;;;;14.25;7.80;;;;;;;32.75;49.28;100164.05;1910424;75;21526;-66
2021/07/21 10:32:26;;;;;;;10.80;8.50;;;;;;;32.61;49.08;100163.27;1910228;75;21088;-66
2021/07/21 10:34:55;;;;;;;12.50;9.50;;;;;;;32.51;49.31;100156.91;1910305;75;21031;-66
2021/07/21 10:37:24;;;;;;;15.72;9.70;;;;;;;32.41;49.69;100162.02;1910087;75;21035;-67
2021/07/21 10:39:58;;;;;;;12.10;9.58;;;;;;;32.25;49.72;100151.91;1910166;75;21074;-66
2021/07/21 10:42:24;;;;;;;11.22;8.58;;;;;;;32.17;49.93;100156.26;1924721;74;21077;-66
2021/07/21 10:45:15;;;;;;;12.85;8.90;;;;;;;32.05;50.39;100155.25;1926093;74;21492;-66
2021/07/21 10:47:53;;;;;;;13.62;9.70;;;;;;;31.94;50.87;100151.27;1924181;74;21128;-66
2021/07/21 10:53:59;;;;;;;10.68;9.08;;;;;;;31.81;51.15;100154.88;1926099;74;21078;-66
2021/07/21 10:59:18;;;;;;;12.00;9.40;;;;;;;31.98;50.91;100157.12;1926171;74;21058;-66
2021/07/21 11:01:49;;;;;;;15.08;9.78;;;;;;;32.21;50.06;100158.86;1926309;74;21064;-66
2021/07/21 11:04:19;;;;;;;12.05;9.15;;;;;;;32.56;49.96;100153.02;1925807;74;21513;-66
2021/07/21 11:06:50;;;;;;;16.50;10.98;;;;;;;32.73;49.63;100153.89;1925924;74;21030;-66
2021/07/21 11:09:32;;;;;;;16.80;10.98;;;;;;;32.82;49.36;100149.84;1926078;74;21073;-66
2021/07/21 11:12:00;;;;;;;15.48;9.88;;;;;;;32.81;48.96;100152.25;1926032;74;21105;-66
2021/07/21 11:14:33;;;;;;;15.28;9.85;;;;;;;32.80;48.64;100162.86;1926209;74;21077;-65
2021/07/21 11:17:11;;;;;;;12.80;9.90;;;;;;;32.89;48.33;100154.72;1926061;74;21042;-66
2021/07/21 11:19:47;;;;;;;16.67;10.98;;;;;;;32.93;47.91;100153.22;1926196;74;21010;-66
2021/07/21 11:22:28;;;;;;;13.00;9.83;;;;;;;32.82;48.31;100151.20;1926226;74;21120;-66
2021/07/21 11:25:18;;;;;;;17.45;10.82;;;;;;;32.72;48.96;100146.75;1926234;74;21050;-66
2021/07/21 11:27:55;;;;;;;22.30;13.65;;;;;;;32.81;49.32;100152.25;1925613;74;21104;-66
2021/07/21 11:30:50;;;;;;;19.98;12.90;;;;;;;32.70;49.22;100170.99;1926095;73;21582;-66
2021/07/21 11:34:01;;;;;;;14.95;12.50;;;;;;;32.51;49.29;100148.74;1926199;74;21086;-65
2021/07/21 11:36:53;;;;;;;21.27;13.22;;;;;;;32.36;49.83;100150.94;1925744;74;21066;-66
2021/07/21 11:39:35;;;;;;;23.40;13.20;;;;;;;32.39;49.55;100146.39;1924287;74;21108;-66
2021/07/21 11:42:06;;;;;;;20.62;12.20;;;;;;;32.37;49.27;100137.10;1917220;74;21074;-67
2021/07/21 11:44:42;;;;;;;14.53;11.85;;;;;;;32.48;49.27;100165.52;1909928;75;21035;-66